Time;durP1;ratioP1;P1;durP2;ratioP2;P2;SDS_P1;SDS_P2;PMS_P1;PMS_P2;Temp;Humidity;BMP_temperature;BMP_pressure;BME280_temperature;BME280_humidity;BME280_pressure;Samples;Min_cycle;Max_cycle;Signal;HPM_P1;HPM_P2
2022/09/24 00:01:07;;;;;;;;;;;13.20;58.00;;;;;;5142303;27;19913;-74
2022/09/24 00:03:33;;;;;;;;;;;13.20;58.10;;;;;;5139135;27;19935;-73
2022/09/24 00:06:01;;;;;;;;;;;13.20;58.20;;;;;;5137305;27;20431;-74
2022/09/24 00:08:26;;;;;;;;;;;13.20;58.30;;;;;;5138977;27;19910;-73
2022/09/24 00:10:52;;;;;;;;;;;13.20;58.30;;;;;;5129528;27;19907;-73
2022/09/24 00:13:17;;;;;;;;;;;13.20;58.40;;;;;;5145379;27;20308;-73
2022/09/24 00:15:45;;;;;;;;;;;13.20;58.50;;;;;;5149346;27;19986;-74
2022/09/24 00:18:11;;;;;;;;;;;13.20;58.60;;;;;;5142001;27;19960;-73
2022/09/24 00:20:37;;;;;;;;;;;13.20;58.60;;;;;;5134130;27;19991;-73
2022/09/24 00:23:04;;;;;;;;;;;13.20;58.60;;;;;;5119120;27;19908;-73
2022/09/24 00:28:13;;;;;;;;;;;13.30;58.60;;;;;;5135634;27;19914;-72
2022/09/24 00:30:40;;;;;;;;;;;13.30;58.60;;;;;;5133986;27;19908;-72
2022/09/24 00:33:06;;;;;;;;;;;13.30;58.60;;;;;;5115124;27;19951;-73
2022/09/24 00:35:32;;;;;;;;;;;13.30;58.60;;;;;;5115472;28;19946;-73
2022/09/24 00:37:58;;;;;;;;;;;13.30;58.60;;;;;;5115339;28;19908;-73
2022/09/24 00:40:30;;;;;;;;;;;13.30;58.60;;;;;;5114906;27;19922;-73
2022/09/24 00:42:56;;;;;;;;;;;13.30;58.60;;;;;;5133819;27;19907;-73
2022/09/24 00:45:23;;;;;;;;;;;13.20;58.60;;;;;;5134341;27;20598;-73
2022/09/24 00:47:49;;;;;;;;;;;13.20;58.60;;;;;;5134906;27;19908;-73
2022/09/24 00:50:21;;;;;;;;;;;13.20;58.60;;;;;;5115383;28;19969;-73
2022/09/24 00:52:50;;;;;;;;;;;13.20;58.60;;;;;;5133781;27;19907;-73
2022/09/24 00:55:18;;;;;;;;;;;13.20;58.60;;;;;;5115350;28;19914;-73
2022/09/24 00:57:45;;;;;;;;;;;13.20;58.60;;;;;;5133706;27;20000;-73
2022/09/24 01:00:10;;;;;;;;;;;13.20;58.70;;;;;;5133576;27;20010;-73
2022/09/24 01:02:38;;;;;;;;;;;13.10;58.80;;;;;;5115295;28;20391;-73
2022/09/24 01:05:04;;;;;;;;;;;13.10;58.80;;;;;;5121793;27;20366;-72
2022/09/24 01:07:29;;;;;;;;;;;13.10;58.90;;;;;;5134675;27;19914;-73
2022/09/24 01:09:55;;;;;;;;;;;13.10;58.90;;;;;;5115170;28;20426;-72
2022/09/24 01:12:39;;;;;;;;;;;13.10;59.00;;;;;;5133623;27;19953;-72
2022/09/24 01:15:20;;;;;;;;;;;13.10;59.00;;;;;;5133428;27;20269;-73
2022/09/24 01:17:52;;;;;;;;;;;13.10;59.10;;;;;;5140441;27;19950;-73
2022/09/24 01:20:40;;;;;;;;;;;13.10;59.10;;;;;;5133840;27;20052;-72
2022/09/24 01:23:44;;;;;;;;;;;13.10;59.10;;;;;;5143043;27;20048;-72
2022/09/24 01:26:18;;;;;;;;;;;13.10;59.10;;;;;;5048859;28;19952;-73
2022/09/24 01:28:49;;;;;;;;;;;13.00;59.10;;;;;;5030347;28;20269;-73
2022/09/24 01:31:37;;;;;;;;;;;13.00;59.10;;;;;;5086827;27;19908;-73
2022/09/24 01:34:04;;;;;;;;;;;13.00;59.10;;;;;;5124769;27;19958;-73
2022/09/24 01:36:31;;;;;;;;;;;13.00;59.20;;;;;;5134846;27;19907;-73
2022/09/24 01:38:57;;;;;;;;;;;13.00;59.20;;;;;;5148215;27;19956;-73
2022/09/24 01:41:23;;;;;;;;;;;13.00;59.30;;;;;;5153769;27;19907;-73
2022/09/24 01:43:49;;;;;;;;;;;13.00;59.30;;;;;;5120272;28;19907;-73
2022/09/24 01:46:18;;;;;;;;;;;13.00;59.30;;;;;;5133172;27;19956;-73
2022/09/24 01:48:44;;;;;;;;;;;13.00;59.40;;;;;;5138565;27;19911;-73
2022/09/24 01:51:13;;;;;;;;;;;13.00;59.40;;;;;;5153781;27;19914;-73
2022/09/24 01:54:08;;;;;;;;;;;12.90;59.30;;;;;;5123402;27;19907;-73
2022/09/24 01:56:43;;;;;;;;;;;12.90;59.40;;;;;;5124763;27;19907;-73
2022/09/24 01:59:10;;;;;;;;;;;12.90;59.40;;;;;;5136736;27;19918;-73
2022/09/24 02:01:49;;;;;;;;;;;12.80;59.40;;;;;;5148664;27;19906;-73
2022/09/24 02:04:16;;;;;;;;;;;12.90;59.50;;;;;;5155051;27;19915;-73
2022/09/24 02:07:02;;;;;;;;;;;12.80;59.50;;;;;;5157031;27;19906;-73
2022/09/24 02:09:38;;;;;;;;;;;12.80;59.50;;;;;;5156033;27;19915;-73
2022/09/24 02:12:07;;;;;;;;;;;12.80;59.70;;;;;;5157646;27;19958;-73
2022/09/24 02:14:37;;;;;;;;;;;12.80;59.70;;;;;;5150401;27;19907;-73
2022/09/24 02:17:03;;;;;;;;;;;12.80;59.70;;;;;;5136929;27;20361;-73
2022/09/24 02:19:29;;;;;;;;;;;12.80;59.80;;;;;;5126091;27;19946;-73
2022/09/24 02:21:56;;;;;;;;;;;12.80;59.80;;;;;;5136513;27;19907;-73
2022/09/24 02:24:25;;;;;;;;;;;12.80;59.80;;;;;;5155533;27;20266;-73
2022/09/24 02:26:51;;;;;;;;;;;12.80;59.90;;;;;;5136258;27;19908;-73
2022/09/24 02:29:17;;;;;;;;;;;12.80;59.90;;;;;;5136270;27;19910;-73
2022/09/24 02:31:46;;;;;;;;;;;12.80;60.00;;;;;;5137400;27;19918;-74
2022/09/24 02:34:20;;;;;;;;;;;12.80;60.00;;;;;;5138649;27;19911;-73
2022/09/24 02:37:06;;;;;;;;;;;12.80;60.00;;;;;;5156630;27;20347;-73
2022/09/24 02:39:32;;;;;;;;;;;12.80;60.10;;;;;;5149107;27;19911;-73
2022/09/24 02:41:58;;;;;;;;;;;12.90;60.20;;;;;;5135934;27;20274;-73
2022/09/24 02:44:24;;;;;;;;;;;12.90;60.10;;;;;;5135790;27;19919;-73
2022/09/24 02:46:50;;;;;;;;;;;12.90;60.10;;;;;;5135781;27;20358;-73
2022/09/24 02:49:15;;;;;;;;;;;12.90;60.10;;;;;;5117255;27;20360;-73
2022/09/24 02:51:42;;;;;;;;;;;12.90;60.10;;;;;;5139473;27;19930;-73
2022/09/24 02:54:08;;;;;;;;;;;12.90;60.10;;;;;;5135755;27;19907;-73
2022/09/24 02:56:33;;;;;;;;;;;12.90;60.00;;;;;;5135599;27;19910;-73
2022/09/24 02:59:01;;;;;;;;;;;12.90;60.10;;;;;;5135655;27;19911;-73
2022/09/24 03:01:26;;;;;;;;;;;12.90;60.10;;;;;;5135589;27;20333;-73
2022/09/24 03:03:52;;;;;;;;;;;12.90;60.20;;;;;;5134952;27;20006;-73
2022/09/24 03:06:17;;;;;;;;;;;12.90;60.20;;;;;;5138254;27;19914;-73
2022/09/24 03:08:43;;;;;;;;;;;12.90;61.10;;;;;;5141506;27;20001;-73
2022/09/24 03:11:09;;;;;;;;;;;12.80;60.30;;;;;;5135445;27;19914;-73
2022/09/24 03:13:35;;;;;;;;;;;12.90;60.30;;;;;;5135292;27;19915;-73
2022/09/24 03:16:01;;;;;;;;;;;12.80;60.40;;;;;;5116626;27;20282;-73
2022/09/24 03:18:27;;;;;;;;;;;12.90;60.50;;;;;;5135327;27;19967;-73
2022/09/24 03:21:22;;;;;;;;;;;12.80;60.30;;;;;;5116815;27;19911;-73
2022/09/24 03:23:47;;;;;;;;;;;12.80;60.40;;;;;;5087303;28;19962;-73
2022/09/24 03:26:13;;;;;;;;;;;12.80;60.50;;;;;;5059186;28;19910;-73
2022/09/24 03:28:39;;;;;;;;;;;12.80;60.50;;;;;;5071804;28;19909;-73
2022/09/24 03:31:04;;;;;;;;;;;12.90;60.70;;;;;;5071787;28;19911;-73
2022/09/24 03:33:33;;;;;;;;;;;12.80;60.70;;;;;;5071494;28;20353;-73
2022/09/24 03:36:06;;;;;;;;;;;12.90;60.70;;;;;;5071518;28;19904;-73
2022/09/24 03:38:32;;;;;;;;;;;12.90;60.70;;;;;;5080372;28;19904;-73
2022/09/24 03:40:58;;;;;;;;;;;12.90;60.70;;;;;;5090023;28;19915;-73
2022/09/24 03:43:24;;;;;;;;;;;12.90;60.70;;;;;;5091583;28;20385;-73
2022/09/24 03:45:50;;;;;;;;;;;12.90;60.70;;;;;;5091486;28;19904;-73
2022/09/24 03:48:16;;;;;;;;;;;12.80;60.60;;;;;;5091065;28;20361;-73
2022/09/24 03:50:42;;;;;;;;;;;12.80;60.50;;;;;;5091569;28;20402;-73
2022/09/24 03:53:07;;;;;;;;;;;12.80;60.50;;;;;;5091273;28;19998;-73
2022/09/24 03:55:33;;;;;;;;;;;12.80;60.70;;;;;;5070743;28;19993;-73
2022/09/24 03:57:59;;;;;;;;;;;12.80;60.70;;;;;;5071526;28;20386;-73
2022/09/24 04:00:24;;;;;;;;;;;12.80;60.70;;;;;;5113036;27;19919;-73
2022/09/24 04:02:50;;;;;;;;;;;12.80;60.60;;;;;;5116140;27;20412;-73
2022/09/24 04:05:16;;;;;;;;;;;12.80;60.60;;;;;;5141586;27;19899;-73
2022/09/24 04:07:42;;;;;;;;;;;12.80;60.60;;;;;;5142499;27;19957;-73
2022/09/24 04:10:08;;;;;;;;;;;12.70;60.50;;;;;;5142432;27;20387;-73
2022/09/24 04:12:33;;;;;;;;;;;12.70;60.50;;;;;;5142406;27;19903;-73
2022/09/24 04:15:01;;;;;;;;;;;12.60;60.50;;;;;;5142567;27;20255;-73
2022/09/24 04:17:30;;;;;;;;;;;12.60;60.50;;;;;;5142321;27;19910;-73
2022/09/24 04:19:58;;;;;;;;;;;12.60;60.50;;;;;;5144229;27;19914;-73
2022/09/24 04:22:24;;;;;;;;;;;12.50;60.50;;;;;;5142384;27;19964;-73
2022/09/24 04:24:51;;;;;;;;;;;12.50;60.50;;;;;;5142053;27;19953;-73
2022/09/24 04:27:17;;;;;;;;;;;12.40;60.50;;;;;;5143976;27;19915;-73
2022/09/24 04:29:42;;;;;;;;;;;12.40;60.80;;;;;;5142123;27;19925;-73
2022/09/24 04:32:08;;;;;;;;;;;12.40;60.80;;;;;;5142604;27;19959;-73
2022/09/24 04:34:34;;;;;;;;;;;12.30;60.80;;;;;;5144437;27;19953;-73
2022/09/24 04:36:59;;;;;;;;;;;12.30;60.80;;;;;;5141714;27;19900;-74
2022/09/24 04:39:26;;;;;;;;;;;12.20;60.80;;;;;;5142193;27;20262;-73
2022/09/24 04:41:52;;;;;;;;;;;12.20;60.80;;;;;;5141583;27;19959;-73
2022/09/24 04:44:17;;;;;;;;;;;12.20;60.80;;;;;;5143744;27;19942;-73
2022/09/24 04:46:43;;;;;;;;;;;12.20;60.90;;;;;;5123579;27;19945;-73
2022/09/24 04:49:09;;;;;;;;;;;12.20;61.00;;;;;;5142692;27;19903;-73
2022/09/24 04:51:35;;;;;;;;;;;12.10;61.00;;;;;;5141977;27;19911;-73
2022/09/24 04:54:03;;;;;;;;;;;12.10;61.10;;;;;;5139901;27;19907;-73
2022/09/24 04:56:29;;;;;;;;;;;12.10;61.20;;;;;;5140514;27;19914;-73
2022/09/24 04:58:55;;;;;;;;;;;12.10;61.20;;;;;;5142251;27;19907;-73
2022/09/24 05:01:22;;;;;;;;;;;12.10;61.30;;;;;;5142596;27;19922;-73
2022/09/24 05:03:48;;;;;;;;;;;12.00;61.30;;;;;;5144315;27;19903;-73
2022/09/24 05:06:13;;;;;;;;;;;12.00;61.30;;;;;;5138936;27;19914;-73
2022/09/24 05:08:39;;;;;;;;;;;12.00;61.40;;;;;;5141926;27;19990;-73
2022/09/24 05:11:05;;;;;;;;;;;12.00;61.50;;;;;;5141974;27;19906;-72
2022/09/24 05:13:30;;;;;;;;;;;12.00;61.70;;;;;;5141581;27;20287;-72
2022/09/24 05:15:56;;;;;;;;;;;12.10;62.00;;;;;;5122504;27;20002;-73
2022/09/24 05:18:21;;;;;;;;;;;12.10;62.20;;;;;;5141095;27;19979;-73
2022/09/24 05:20:47;;;;;;;;;;;12.10;62.30;;;;;;5139007;27;20001;-73
2022/09/24 05:23:12;;;;;;;;;;;12.20;62.40;;;;;;5142574;27;19943;-73
2022/09/24 05:27:08;;;;;;;;;;;12.20;62.40;;;;;;5140867;27;20417;-72
2022/09/24 05:28:24;;;;;;;;;;;12.30;62.50;;;;;;5147300;27;19993;-72
2022/09/24 05:30:49;;;;;;;;;;;12.40;62.60;;;;;;5127191;27;20357;-73
2022/09/24 05:33:15;;;;;;;;;;;12.40;62.60;;;;;;5127774;27;19968;-72
2022/09/24 05:35:41;;;;;;;;;;;12.50;62.60;;;;;;5147172;27;19913;-73
2022/09/24 05:38:06;;;;;;;;;;;12.60;62.70;;;;;;5126805;27;20459;-72
2022/09/24 05:40:47;;;;;;;;;;;12.60;62.60;;;;;;5145800;27;19910;-73
2022/09/24 05:43:13;;;;;;;;;;;12.70;62.60;;;;;;5144311;27;19960;-73
2022/09/24 05:45:38;;;;;;;;;;;12.80;62.60;;;;;;5145845;27;19910;-73
2022/09/24 05:48:04;;;;;;;;;;;12.80;62.60;;;;;;5128523;27;19982;-73
2022/09/24 05:50:33;;;;;;;;;;;12.90;62.50;;;;;;5145475;27;19942;-72
2022/09/24 05:53:03;;;;;;;;;;;13.00;62.50;;;;;;5145720;27;19946;-72
2022/09/24 05:55:28;;;;;;;;;;;13.00;62.50;;;;;;5144158;27;19908;-72
2022/09/24 05:57:54;;;;;;;;;;;13.10;62.50;;;;;;5146100;27;19914;-72
2022/09/24 06:00:19;;;;;;;;;;;13.10;62.50;;;;;;5145865;27;20267;-72
2022/09/24 06:02:45;;;;;;;;;;;13.20;62.40;;;;;;5146903;27;20039;-72
2022/09/24 06:05:11;;;;;;;;;;;13.20;62.30;;;;;;5146022;27;20251;-72
2022/09/24 06:07:37;;;;;;;;;;;13.30;62.30;;;;;;5144930;27;19903;-72
2022/09/24 06:10:04;;;;;;;;;;;13.30;62.10;;;;;;5144512;27;19911;-74
2022/09/24 06:12:33;;;;;;;;;;;13.40;62.00;;;;;;5147152;27;19911;-72
2022/09/24 06:15:00;;;;;;;;;;;13.40;61.90;;;;;;5123232;27;19915;-72
2022/09/24 06:17:26;;;;;;;;;;;13.40;61.80;;;;;;5146657;27;20358;-72
2022/09/24 06:19:51;;;;;;;;;;;13.40;61.60;;;;;;5126825;27;19911;-72
2022/09/24 06:22:17;;;;;;;;;;;13.50;61.60;;;;;;5146391;27;19956;-72
2022/09/24 06:24:42;;;;;;;;;;;13.50;61.50;;;;;;5144155;27;19907;-72
2022/09/24 06:27:08;;;;;;;;;;;13.50;61.40;;;;;;5143417;27;19903;-72
2022/09/24 06:29:34;;;;;;;;;;;13.50;61.40;;;;;;5145912;27;19903;-73
2022/09/24 06:32:00;;;;;;;;;;;13.50;61.50;;;;;;5142307;27;20404;-74
2022/09/24 06:34:26;;;;;;;;;;;13.60;61.50;;;;;;5145105;27;19904;-74
2022/09/24 06:36:52;;;;;;;;;;;13.60;61.50;;;;;;5145258;27;19904;-74
2022/09/24 06:39:18;;;;;;;;;;;13.60;61.60;;;;;;5135110;27;19907;-72
2022/09/24 06:41:45;;;;;;;;;;;13.70;61.70;;;;;;5136260;27;20426;-73
2022/09/24 06:44:11;;;;;;;;;;;13.80;61.80;;;;;;5136462;27;19907;-73
2022/09/24 06:46:36;;;;;;;;;;;13.80;61.90;;;;;;5136201;27;20474;-73
2022/09/24 06:49:02;;;;;;;;;;;13.90;61.80;;;;;;5136177;27;19903;-73
2022/09/24 06:51:27;;;;;;;;;;;14.00;61.70;;;;;;5150201;27;20330;-73
2022/09/24 06:53:53;;;;;;;;;;;14.00;61.60;;;;;;5156698;27;20254;-73
2022/09/24 06:56:19;;;;;;;;;;;14.10;61.50;;;;;;5141246;27;19915;-73
2022/09/24 06:58:45;;;;;;;;;;;14.20;61.40;;;;;;5136186;27;19946;-73
2022/09/24 07:01:10;;;;;;;;;;;14.20;61.40;;;;;;5117546;27;19910;-73
2022/09/24 07:03:38;;;;;;;;;;;14.20;61.30;;;;;;5135982;27;19908;-73
2022/09/24 07:06:05;;;;;;;;;;;14.30;61.30;;;;;;5136723;27;19903;-73
2022/09/24 07:08:30;;;;;;;;;;;14.30;61.30;;;;;;5154242;27;20593;-73
2022/09/24 07:10:56;;;;;;;;;;;14.40;61.30;;;;;;5124890;27;19907;-73
2022/09/24 07:13:21;;;;;;;;;;;14.40;61.30;;;;;;5156564;27;19907;-73
2022/09/24 07:15:51;;;;;;;;;;;14.50;61.30;;;;;;5124254;27;19910;-72
2022/09/24 07:18:17;;;;;;;;;;;14.60;61.30;;;;;;5135638;27;19903;-72
2022/09/24 07:20:43;;;;;;;;;;;14.70;61.30;;;;;;5135581;27;19971;-74
2022/09/24 07:23:10;;;;;;;;;;;14.80;61.20;;;;;;5145981;27;19903;-73
2022/09/24 07:25:36;;;;;;;;;;;14.90;61.20;;;;;;5144913;27;19907;-74
2022/09/24 07:28:06;;;;;;;;;;;15.00;61.10;;;;;;5149491;27;20310;-74
2022/09/24 07:30:33;;;;;;;;;;;15.10;60.90;;;;;;5156008;27;19910;-74
2022/09/24 07:32:58;;;;;;;;;;;15.20;60.50;;;;;;5155464;27;20365;-73
2022/09/24 07:35:25;;;;;;;;;;;15.30;60.40;;;;;;5155867;27;19910;-73
2022/09/24 07:37:57;;;;;;;;;;;15.40;60.40;;;;;;5136875;27;19903;-73
2022/09/24 07:40:23;;;;;;;;;;;15.50;60.30;;;;;;5155765;27;19949;-73
2022/09/24 07:42:49;;;;;;;;;;;15.60;60.10;;;;;;5146547;27;20413;-73
2022/09/24 07:45:16;;;;;;;;;;;15.70;59.80;;;;;;5135006;27;19911;-73
2022/09/24 07:47:41;;;;;;;;;;;15.80;59.80;;;;;;5143766;27;19903;-73
2022/09/24 07:50:08;;;;;;;;;;;15.80;59.70;;;;;;5136952;27;19910;-73
2022/09/24 07:52:34;;;;;;;;;;;15.90;59.60;;;;;;5147929;27;19942;-73
2022/09/24 07:55:00;;;;;;;;;;;16.00;59.60;;;;;;5138316;27;20549;-73
2022/09/24 07:57:26;;;;;;;;;;;16.00;59.50;;;;;;5129270;27;19907;-73
2022/09/24 07:59:52;;;;;;;;;;;16.10;59.40;;;;;;5141896;27;20659;-73
2022/09/24 08:02:18;;;;;;;;;;;16.20;59.30;;;;;;5149604;27;19951;-73
2022/09/24 08:04:44;;;;;;;;;;;16.20;59.10;;;;;;5155313;27;19906;-74
2022/09/24 08:07:10;;;;;;;;;;;16.30;58.80;;;;;;5155344;27;19906;-74
2022/09/24 08:09:36;;;;;;;;;;;16.40;58.80;;;;;;5118300;27;19903;-74
2022/09/24 08:12:02;;;;;;;;;;;16.40;58.90;;;;;;5141704;27;20325;-74
2022/09/24 08:14:27;;;;;;;;;;;16.60;58.90;;;;;;5155202;27;19903;-74
2022/09/24 08:16:53;;;;;;;;;;;16.70;58.90;;;;;;5155150;27;19903;-74
2022/09/24 08:19:19;;;;;;;;;;;16.70;58.70;;;;;;5149284;27;19956;-74
2022/09/24 08:21:47;;;;;;;;;;;16.90;58.60;;;;;;5144672;27;19923;-74
2022/09/24 08:24:13;;;;;;;;;;;16.90;58.30;;;;;;5143172;27;19953;-74
2022/09/24 08:26:39;;;;;;;;;;;17.00;58.10;;;;;;5143750;27;20350;-74
2022/09/24 08:29:04;;;;;;;;;;;17.10;57.90;;;;;;5143973;27;20114;-74
2022/09/24 08:31:31;;;;;;;;;;;17.10;57.40;;;;;;5142709;27;19903;-74
2022/09/24 08:33:56;;;;;;;;;;;17.10;57.30;;;;;;5124969;27;19910;-74
2022/09/24 08:36:22;;;;;;;;;;;17.20;57.10;;;;;;5144261;27;19914;-74
2022/09/24 08:38:47;;;;;;;;;;;17.20;56.90;;;;;;5139591;27;19907;-74
2022/09/24 08:41:13;;;;;;;;;;;17.30;56.70;;;;;;5123581;27;20314;-73
2022/09/24 08:43:46;;;;;;;;;;;17.30;56.60;;;;;;5141425;27;20358;-73
2022/09/24 08:49:01;;;;;;;;;;;17.40;56.50;;;;;;5140576;27;19922;-73
2022/09/24 08:51:28;;;;;;;;;;;17.40;56.50;;;;;;5142631;27;19907;-74
2022/09/24 08:54:00;;;;;;;;;;;17.40;56.20;;;;;;5138808;27;19908;-74
2022/09/24 08:56:28;;;;;;;;;;;17.50;56.40;;;;;;5140517;27;20218;-74
2022/09/24 08:59:02;;;;;;;;;;;17.50;56.40;;;;;;5142591;27;20476;-74
2022/09/24 09:01:34;;;;;;;;;;;17.60;56.40;;;;;;5142875;27;19907;-74
2022/09/24 09:04:12;;;;;;;;;;;17.70;56.60;;;;;;5148715;27;19907;-73
2022/09/24 09:06:40;;;;;;;;;;;17.80;56.60;;;;;;5145059;27;19979;-74
2022/09/24 09:09:11;;;;;;;;;;;18.00;56.80;;;;;;5128296;27;19922;-74
2022/09/24 09:11:38;;;;;;;;;;;18.20;56.70;;;;;;5147493;27;19913;-74
2022/09/24 09:14:08;;;;;;;;;;;18.40;56.60;;;;;;5145131;27;19949;-74
2022/09/24 09:16:49;;;;;;;;;;;18.60;56.40;;;;;;5148254;27;19907;-73
2022/09/24 09:19:15;;;;;;;;;;;18.80;56.20;;;;;;5149733;27;19915;-74
2022/09/24 09:21:42;;;;;;;;;;;19.00;55.50;;;;;;5146081;27;19908;-74
2022/09/24 09:24:15;;;;;;;;;;;19.20;55.40;;;;;;5127166;27;19990;-73
2022/09/24 09:26:42;;;;;;;;;;;19.30;55.10;;;;;;5144779;27;19911;-74
2022/09/24 09:29:08;;;;;;;;;;;19.50;54.90;;;;;;5146239;27;19914;-74
2022/09/24 09:31:46;;;;;;;;;;;19.70;54.90;;;;;;5144667;27;19915;-74
2022/09/24 09:34:27;;;;;;;;;;;19.80;55.20;;;;;;5143885;27;20425;-73
2022/09/24 09:36:53;;;;;;;;;;;20.00;53.90;;;;;;5149911;27;19991;-73
2022/09/24 09:39:28;;;;;;;;;;;20.10;53.30;;;;;;5144685;27;19976;-73
2022/09/24 09:41:57;;;;;;;;;;;20.20;52.70;;;;;;5144674;27;19907;-73
2022/09/24 09:44:25;;;;;;;;;;;20.30;52.70;;;;;;5127287;27;19911;-73
2022/09/24 09:46:53;;;;;;;;;;;20.40;53.00;;;;;;5128856;27;20249;-73
2022/09/24 09:49:21;;;;;;;;;;;20.50;52.90;;;;;;5147465;27;20263;-73
2022/09/24 09:51:47;;;;;;;;;;;20.60;52.80;;;;;;5127890;27;19931;-73
2022/09/24 09:54:13;;;;;;;;;;;20.80;52.60;;;;;;5146329;27;19903;-74
2022/09/24 09:56:43;;;;;;;;;;;20.90;51.90;;;;;;5149360;27;19959;-74
2022/09/24 09:59:11;;;;;;;;;;;21.00;51.50;;;;;;5146460;27;19907;-74
2022/09/24 10:01:40;;;;;;;;;;;21.10;51.30;;;;;;5145846;27;19961;-74
2022/09/24 10:04:20;;;;;;;;;;;21.30;51.30;;;;;;5147073;27;20309;-74
2022/09/24 10:06:45;;;;;;;;;;;21.40;51.20;;;;;;5145509;27;20010;-74
2022/09/24 10:09:14;;;;;;;;;;;21.50;51.10;;;;;;5143621;27;19999;-74
2022/09/24 10:11:41;;;;;;;;;;;21.60;50.90;;;;;;5144430;27;19983;-74
2022/09/24 10:14:11;;;;;;;;;;;21.70;50.30;;;;;;5143757;27;19907;-73
2022/09/24 10:16:37;;;;;;;;;;;21.80;50.20;;;;;;5147188;27;19960;-73
2022/09/24 10:19:09;;;;;;;;;;;21.80;50.20;;;;;;5138994;27;19958;-73
2022/09/24 10:21:35;;;;;;;;;;;21.80;49.70;;;;;;5129250;27;19903;-73
2022/09/24 10:24:07;;;;;;;;;;;21.80;49.60;;;;;;5148580;27;20272;-73
2022/09/24 10:26:37;;;;;;;;;;;21.80;49.20;;;;;;5129087;27;19915;-73
2022/09/24 10:31:48;;;;;;;;;;;21.80;48.80;;;;;;5149134;27;20392;-73
2022/09/24 10:34:32;;;;;;;;;;;21.70;48.60;;;;;;5130998;27;19907;-73
2022/09/24 10:37:02;;;;;;;;;;;21.70;48.60;;;;;;5148235;27;20311;-75
2022/09/24 10:39:28;;;;;;;;;;;21.70;48.80;;;;;;5149819;27;20199;-73
2022/09/24 10:41:55;;;;;;;;;;;21.80;48.70;;;;;;5147096;27;20354;-74
2022/09/24 10:44:22;;;;;;;;;;;21.80;48.50;;;;;;5147551;27;19910;-74
2022/09/24 10:46:59;;;;;;;;;;;21.90;48.40;;;;;;5149102;27;19951;-73
2022/09/24 10:49:48;;;;;;;;;;;22.00;48.40;;;;;;5145279;27;19914;-74
2022/09/24 10:52:33;;;;;;;;;;;22.10;48.50;;;;;;5145180;27;19914;-74
2022/09/24 10:55:18;;;;;;;;;;;22.20;48.20;;;;;;5127434;27;19911;-74
2022/09/24 10:58:02;;;;;;;;;;;22.40;48.50;;;;;;5142369;27;19911;-74
2022/09/24 11:00:38;;;;;;;;;;;22.60;48.50;;;;;;5148768;27;19918;-74
2022/09/24 11:03:11;;;;;;;;;;;22.80;48.30;;;;;;5142623;27;20272;-74
2022/09/24 11:05:41;;;;;;;;;;;22.90;47.70;;;;;;5142608;27;19986;-74
2022/09/24 11:08:06;;;;;;;;;;;23.10;47.80;;;;;;5150185;27;19946;-74
2022/09/24 11:10:40;;;;;;;;;;;23.20;47.40;;;;;;5150213;27;20352;-74
2022/09/24 11:13:23;;;;;;;;;;;23.30;47.40;;;;;;5131378;27;20360;-74
2022/09/24 11:16:07;;;;;;;;;;;23.50;47.50;;;;;;5144168;27;19907;-74
2022/09/24 11:18:45;;;;;;;;;;;23.60;47.20;;;;;;5137013;27;20393;-74
2022/09/24 11:21:11;;;;;;;;;;;23.70;46.50;;;;;;5136179;27;19911;-73
2022/09/24 11:23:36;;;;;;;;;;;23.90;45.90;;;;;;5145417;27;20378;-73
2022/09/24 11:26:02;;;;;;;;;;;23.90;45.70;;;;;;5145322;27;20450;-73
2022/09/24 11:28:28;;;;;;;;;;;24.00;45.50;;;;;;5125525;27;19904;-73
2022/09/24 11:31:08;;;;;;;;;;;24.00;45.40;;;;;;5138210;27;19907;-73
2022/09/24 11:33:40;;;;;;;;;;;24.00;45.40;;;;;;5153702;27;19915;-73
2022/09/24 11:36:11;;;;;;;;;;;24.10;45.40;;;;;;5136500;27;19910;-73
2022/09/24 11:38:43;;;;;;;;;;;24.10;45.00;;;;;;5137233;27;19903;-73
2022/09/24 11:41:21;;;;;;;;;;;24.10;44.70;;;;;;5155847;27;19903;-74
2022/09/24 11:43:47;;;;;;;;;;;24.10;44.40;;;;;;5155710;27;19990;-74
2022/09/24 11:46:26;;;;;;;;;;;24.00;44.40;;;;;;5155763;27;20281;-74
2022/09/24 11:49:03;;;;;;;;;;;24.00;44.30;;;;;;5152748;27;19930;-73
2022/09/24 11:51:48;;;;;;;;;;;24.00;44.20;;;;;;5154629;27;19907;-74
2022/09/24 11:54:27;;;;;;;;;;;24.00;44.40;;;;;;5137598;27;19903;-73
2022/09/24 11:57:02;;;;;;;;;;;24.00;44.40;;;;;;5120571;27;19910;-74
2022/09/24 11:59:34;;;;;;;;;;;24.00;44.20;;;;;;5134729;27;19918;-73
2022/09/24 12:02:04;;;;;;;;;;;23.90;44.00;;;;;;5134614;27;19971;-74
2022/09/24 12:04:41;;;;;;;;;;;23.90;44.00;;;;;;5134643;27;20354;-74
2022/09/24 12:07:12;;;;;;;;;;;24.00;44.10;;;;;;5154450;27;19911;-74
2022/09/24 12:09:44;;;;;;;;;;;24.00;44.10;;;;;;5136761;27;19949;-74
2022/09/24 12:12:15;;;;;;;;;;;24.00;44.00;;;;;;5155302;27;19903;-74
2022/09/24 12:14:46;;;;;;;;;;;24.00;43.90;;;;;;5154927;27;20368;-74
2022/09/24 12:17:17;;;;;;;;;;;24.00;43.70;;;;;;5155084;27;19903;-74
2022/09/24 12:19:48;;;;;;;;;;;24.00;43.60;;;;;;5136519;27;19907;-73
2022/09/24 12:22:15;;;;;;;;;;;24.10;43.80;;;;;;5151066;27;19906;-72
2022/09/24 12:24:48;;;;;;;;;;;24.10;43.70;;;;;;5151840;27;19907;-72
2022/09/24 12:27:16;;;;;;;;;;;24.10;43.40;;;;;;5143488;27;19908;-72
2022/09/24 12:32:53;;;;;;;;;;;24.20;43.50;;;;;;5143976;27;20014;-73
2022/09/24 12:35:27;;;;;;;;;;;24.20;43.30;;;;;;5142203;27;20006;-73
2022/09/24 12:37:59;;;;;;;;;;;24.20;43.40;;;;;;5123498;27;19926;-73
2022/09/24 12:41:03;;;;;;;;;;;24.30;43.30;;;;;;5143038;27;19997;-74
2022/09/24 12:43:32;;;;;;;;;;;24.40;43.20;;;;;;5143714;27;19911;-73
2022/09/24 12:46:00;;;;;;;;;;;24.40;43.00;;;;;;5142132;27;20255;-73
2022/09/24 12:48:27;;;;;;;;;;;24.50;43.10;;;;;;5145498;27;19918;-73
2022/09/24 12:50:58;;;;;;;;;;;24.50;42.60;;;;;;5142070;27;19911;-73
2022/09/24 12:53:26;;;;;;;;;;;24.50;42.40;;;;;;5141614;27;19911;-73
2022/09/24 12:55:57;;;;;;;;;;;24.60;42.60;;;;;;5143869;27;20383;-73
2022/09/24 12:58:26;;;;;;;;;;;24.60;42.40;;;;;;5143320;27;19915;-73
2022/09/24 13:01:03;;;;;;;;;;;24.60;42.10;;;;;;5125095;27;19907;-73
2022/09/24 13:03:32;;;;;;;;;;;24.60;42.10;;;;;;5143514;27;19930;-74
2022/09/24 13:05:59;;;;;;;;;;;24.50;41.80;;;;;;5142523;27;19903;-73
2022/09/24 13:08:26;;;;;;;;;;;24.50;41.80;;;;;;5142500;27;19952;-73
2022/09/24 13:10:53;;;;;;;;;;;24.40;41.80;;;;;;5141565;27;19995;-73
2022/09/24 13:13:24;;;;;;;;;;;24.30;41.80;;;;;;5142618;27;19903;-73
2022/09/24 13:16:06;;;;;;;;;;;24.30;41.90;;;;;;5144253;27;20419;-73
2022/09/24 13:18:33;;;;;;;;;;;24.20;41.90;;;;;;5154480;27;19911;-73
2022/09/24 13:21:17;;;;;;;;;;;24.20;42.10;;;;;;5154396;27;19907;-73
2022/09/24 13:23:44;;;;;;;;;;;24.20;42.10;;;;;;5148689;27;19925;-73
2022/09/24 13:26:29;;;;;;;;;;;24.10;42.10;;;;;;5142596;27;19952;-73
2022/09/24 13:29:00;;;;;;;;;;;24.20;42.30;;;;;;5133628;28;20227;-72
2022/09/24 13:31:38;;;;;;;;;;;24.20;42.40;;;;;;5115028;28;19904;-73
2022/09/24 13:34:07;;;;;;;;;;;24.20;42.40;;;;;;5133596;28;19947;-74
2022/09/24 13:36:35;;;;;;;;;;;24.30;42.40;;;;;;5133596;28;19903;-74
2022/09/24 13:39:07;;;;;;;;;;;24.40;42.30;;;;;;5137048;27;19945;-73
2022/09/24 13:41:45;;;;;;;;;;;24.40;42.10;;;;;;5154342;27;19903;-73
2022/09/24 13:44:31;;;;;;;;;;;24.50;42.00;;;;;;5154479;27;19922;-73
2022/09/24 13:47:15;;;;;;;;;;;24.60;41.90;;;;;;5135666;27;20254;-74
2022/09/24 13:49:43;;;;;;;;;;;24.70;41.90;;;;;;5158012;27;20040;-73
2022/09/24 13:52:27;;;;;;;;;;;24.70;41.70;;;;;;5139684;27;20296;-72
2022/09/24 13:54:55;;;;;;;;;;;24.70;41.60;;;;;;5149761;27;19908;-73
2022/09/24 13:57:21;;;;;;;;;;;24.80;41.50;;;;;;5137249;27;20381;-73
2022/09/24 13:59:46;;;;;;;;;;;24.90;41.60;;;;;;5136904;27;19908;-74
2022/09/24 14:02:23;;;;;;;;;;;24.90;41.40;;;;;;5118571;27;19903;-72
2022/09/24 14:04:52;;;;;;;;;;;24.90;41.30;;;;;;5118582;27;19899;-73
2022/09/24 14:07:19;;;;;;;;;;;24.90;41.20;;;;;;5137008;27;19903;-73
2022/09/24 14:09:47;;;;;;;;;;;25.00;41.20;;;;;;5119394;27;20323;-73
2022/09/24 14:12:14;;;;;;;;;;;24.90;41.00;;;;;;5157231;27;19955;-73
2022/09/24 14:14:42;;;;;;;;;;;24.90;41.00;;;;;;5157497;27;19906;-74
2022/09/24 14:17:11;;;;;;;;;;;24.90;41.10;;;;;;5138884;27;20421;-73
2022/09/24 14:19:37;;;;;;;;;;;24.80;41.10;;;;;;5157404;27;19914;-74
2022/09/24 14:22:05;;;;;;;;;;;24.70;41.10;;;;;;5157474;27;19903;-73
2022/09/24 14:24:42;;;;;;;;;;;24.60;41.20;;;;;;5138774;27;19922;-74
2022/09/24 14:27:18;;;;;;;;;;;24.60;41.40;;;;;;5140843;27;19907;-73
2022/09/24 14:29:49;;;;;;;;;;;24.50;41.60;;;;;;5118458;27;20274;-73
2022/09/24 14:32:20;;;;;;;;;;;24.40;41.70;;;;;;5117948;27;19963;-73
2022/09/24 14:34:50;;;;;;;;;;;24.30;41.80;;;;;;5117927;27;19956;-73
2022/09/24 14:37:18;;;;;;;;;;;24.20;41.90;;;;;;5117933;27;20366;-73
2022/09/24 14:39:45;;;;;;;;;;;24.10;42.00;;;;;;5136367;27;19994;-73